sensor_id;sensor_type;location;lat;lon;timestamp;P1;durP1;ratioP1;P2;durP2;ratioP2
18947;SDS011;9607;51.600;7.558;2022-12-13T00:00:23;114.67;;;54.03;;
18947;SDS011;9607;51.600;7.558;2022-12-13T00:02:50;94.47;;;48.90;;
18947;SDS011;9607;51.600;7.558;2022-12-13T00:05:20;104.03;;;51.83;;
18947;SDS011;9607;51.600;7.558;2022-12-13T00:07:47;83.47;;;45.20;;
18947;SDS011;9607;51.600;7.558;2022-12-13T00:10:15;93.73;;;48.07;;
18947;SDS011;9607;51.600;7.558;2022-12-13T00:12:42;79.23;;;42.33;;
18947;SDS011;9607;51.600;7.558;2022-12-13T00:15:09;88.67;;;47.07;;
18947;SDS011;9607;51.600;7.558;2022-12-13T00:17:37;92.83;;;46.00;;
18947;SDS011;9607;51.600;7.558;2022-12-13T00:20:04;87.40;;;45.63;;
18947;SDS011;9607;51.600;7.558;2022-12-13T00:25:00;85.10;;;42.50;;
18947;SDS011;9607;51.600;7.558;2022-12-13T00:27:27;81.90;;;43.83;;
18947;SDS011;9607;51.600;7.558;2022-12-13T00:29:54;84.13;;;43.27;;
18947;SDS011;9607;51.600;7.558;2022-12-13T00:32:21;81.80;;;43.73;;
18947;SDS011;9607;51.600;7.558;2022-12-13T00:34:48;75.63;;;40.67;;
18947;SDS011;9607;51.600;7.558;2022-12-13T00:37:15;80.10;;;41.97;;
18947;SDS011;9607;51.600;7.558;2022-12-13T00:39:43;77.40;;;40.67;;
18947;SDS011;9607;51.600;7.558;2022-12-13T00:42:10;89.77;;;44.53;;
18947;SDS011;9607;51.600;7.558;2022-12-13T00:44:37;78.20;;;40.93;;
18947;SDS011;9607;51.600;7.558;2022-12-13T00:47:04;80.70;;;43.93;;
18947;SDS011;9607;51.600;7.558;2022-12-13T00:49:30;72.57;;;41.40;;
18947;SDS011;9607;51.600;7.558;2022-12-13T00:51:57;76.53;;;40.60;;
18947;SDS011;9607;51.600;7.558;2022-12-13T00:54:24;84.67;;;43.27;;
18947;SDS011;9607;51.600;7.558;2022-12-13T00:56:52;89.87;;;41.60;;
18947;SDS011;9607;51.600;7.558;2022-12-13T00:59:19;82.00;;;41.77;;
18947;SDS011;9607;51.600;7.558;2022-12-13T01:01:46;77.90;;;41.23;;
18947;SDS011;9607;51.600;7.558;2022-12-13T01:04:13;84.53;;;43.60;;
18947;SDS011;9607;51.600;7.558;2022-12-13T01:06:41;83.83;;;45.40;;
18947;SDS011;9607;51.600;7.558;2022-12-13T01:09:11;84.47;;;43.13;;
18947;SDS011;9607;51.600;7.558;2022-12-13T01:11:42;94.47;;;45.40;;
18947;SDS011;9607;51.600;7.558;2022-12-13T01:14:10;77.40;;;40.20;;
18947;SDS011;9607;51.600;7.558;2022-12-13T01:16:38;74.73;;;38.33;;
18947;SDS011;9607;51.600;7.558;2022-12-13T01:19:05;77.23;;;39.70;;
18947;SDS011;9607;51.600;7.558;2022-12-13T01:21:32;68.57;;;37.63;;
18947;SDS011;9607;51.600;7.558;2022-12-13T01:24:00;66.03;;;34.57;;
18947;SDS011;9607;51.600;7.558;2022-12-13T01:26:28;60.63;;;32.97;;
18947;SDS011;9607;51.600;7.558;2022-12-13T01:28:55;61.80;;;33.40;;
18947;SDS011;9607;51.600;7.558;2022-12-13T01:31:24;58.97;;;32.20;;
18947;SDS011;9607;51.600;7.558;2022-12-13T01:33:51;68.13;;;36.13;;
18947;SDS011;9607;51.600;7.558;2022-12-13T01:36:18;61.77;;;34.10;;
18947;SDS011;9607;51.600;7.558;2022-12-13T01:38:46;65.03;;;35.20;;
18947;SDS011;9607;51.600;7.558;2022-12-13T01:41:14;63.63;;;34.47;;
18947;SDS011;9607;51.600;7.558;2022-12-13T01:43:50;62.50;;;35.00;;
18947;SDS011;9607;51.600;7.558;2022-12-13T01:46:19;53.70;;;30.60;;
18947;SDS011;9607;51.600;7.558;2022-12-13T01:48:48;53.70;;;32.07;;
18947;SDS011;9607;51.600;7.558;2022-12-13T01:51:20;52.50;;;29.37;;
18947;SDS011;9607;51.600;7.558;2022-12-13T01:53:51;50.40;;;28.00;;
18947;SDS011;9607;51.600;7.558;2022-12-13T01:56:24;46.13;;;27.17;;
18947;SDS011;9607;51.600;7.558;2022-12-13T01:58:53;44.80;;;25.80;;
18947;SDS011;9607;51.600;7.558;2022-12-13T02:01:21;41.30;;;24.70;;
18947;SDS011;9607;51.600;7.558;2022-12-13T02:03:50;41.47;;;24.70;;
18947;SDS011;9607;51.600;7.558;2022-12-13T02:06:18;40.43;;;24.47;;
18947;SDS011;9607;51.600;7.558;2022-12-13T02:08:50;43.70;;;26.47;;
18947;SDS011;9607;51.600;7.558;2022-12-13T02:11:17;38.67;;;22.97;;
18947;SDS011;9607;51.600;7.558;2022-12-13T02:13:44;38.03;;;22.60;;
18947;SDS011;9607;51.600;7.558;2022-12-13T02:16:11;36.97;;;21.63;;
18947;SDS011;9607;51.600;7.558;2022-12-13T02:18:50;35.13;;;22.20;;
18947;SDS011;9607;51.600;7.558;2022-12-13T02:21:31;33.30;;;20.97;;
18947;SDS011;9607;51.600;7.558;2022-12-13T02:27:12;34.87;;;21.40;;
18947;SDS011;9607;51.600;7.558;2022-12-13T02:35:49;34.43;;;20.60;;
18947;SDS011;9607;51.600;7.558;2022-12-13T02:38:23;35.60;;;21.97;;
18947;SDS011;9607;51.600;7.558;2022-12-13T02:40:56;34.67;;;21.67;;
18947;SDS011;9607;51.600;7.558;2022-12-13T02:43:31;37.17;;;21.90;;
18947;SDS011;9607;51.600;7.558;2022-12-13T02:46:03;42.77;;;23.97;;
18947;SDS011;9607;51.600;7.558;2022-12-13T02:48:32;41.10;;;24.37;;
18947;SDS011;9607;51.600;7.558;2022-12-13T02:51:02;40.63;;;23.80;;
18947;SDS011;9607;51.600;7.558;2022-12-13T02:53:32;39.53;;;22.20;;
18947;SDS011;9607;51.600;7.558;2022-12-13T02:56:00;38.77;;;23.03;;
18947;SDS011;9607;51.600;7.558;2022-12-13T02:58:28;36.07;;;21.87;;
18947;SDS011;9607;51.600;7.558;2022-12-13T03:01:02;48.77;;;27.90;;
18947;SDS011;9607;51.600;7.558;2022-12-13T03:03:44;64.77;;;32.80;;
18947;SDS011;9607;51.600;7.558;2022-12-13T03:06:19;61.97;;;34.47;;
18947;SDS011;9607;51.600;7.558;2022-12-13T03:08:58;55.40;;;30.43;;
18947;SDS011;9607;51.600;7.558;2022-12-13T03:11:38;52.67;;;29.83;;
18947;SDS011;9607;51.600;7.558;2022-12-13T03:14:31;54.50;;;29.17;;
18947;SDS011;9607;51.600;7.558;2022-12-13T03:17:03;55.90;;;31.57;;
18947;SDS011;9607;51.600;7.558;2022-12-13T03:19:32;55.40;;;30.33;;
18947;SDS011;9607;51.600;7.558;2022-12-13T03:21:59;67.20;;;34.67;;
18947;SDS011;9607;51.600;7.558;2022-12-13T03:24:28;62.77;;;35.93;;
18947;SDS011;9607;51.600;7.558;2022-12-13T03:26:55;62.07;;;34.00;;
18947;SDS011;9607;51.600;7.558;2022-12-13T03:29:22;62.27;;;31.83;;
18947;SDS011;9607;51.600;7.558;2022-12-13T03:31:49;62.83;;;32.87;;
18947;SDS011;9607;51.600;7.558;2022-12-13T03:34:17;50.87;;;28.67;;
18947;SDS011;9607;51.600;7.558;2022-12-13T03:36:44;46.13;;;26.77;;
18947;SDS011;9607;51.600;7.558;2022-12-13T03:39:11;48.23;;;25.17;;
18947;SDS011;9607;51.600;7.558;2022-12-13T03:41:39;44.53;;;25.83;;
18947;SDS011;9607;51.600;7.558;2022-12-13T03:44:06;42.27;;;24.40;;
18947;SDS011;9607;51.600;7.558;2022-12-13T03:46:34;38.87;;;23.43;;
18947;SDS011;9607;51.600;7.558;2022-12-13T03:49:01;43.17;;;25.47;;
18947;SDS011;9607;51.600;7.558;2022-12-13T03:51:29;42.90;;;24.67;;
18947;SDS011;9607;51.600;7.558;2022-12-13T03:53:56;42.33;;;24.73;;
18947;SDS011;9607;51.600;7.558;2022-12-13T03:56:23;55.43;;;28.20;;
18947;SDS011;9607;51.600;7.558;2022-12-13T03:58:50;55.13;;;30.10;;
18947;SDS011;9607;51.600;7.558;2022-12-13T04:01:17;66.37;;;34.53;;
18947;SDS011;9607;51.600;7.558;2022-12-13T04:03:44;67.77;;;34.20;;
18947;SDS011;9607;51.600;7.558;2022-12-13T04:06:12;62.93;;;33.17;;
18947;SDS011;9607;51.600;7.558;2022-12-13T04:08:41;66.60;;;33.67;;
18947;SDS011;9607;51.600;7.558;2022-12-13T04:11:09;59.33;;;32.63;;
18947;SDS011;9607;51.600;7.558;2022-12-13T04:13:53;65.43;;;34.07;;
18947;SDS011;9607;51.600;7.558;2022-12-13T04:16:20;64.13;;;33.70;;
18947;SDS011;9607;51.600;7.558;2022-12-13T04:18:48;54.20;;;31.43;;
18947;SDS011;9607;51.600;7.558;2022-12-13T04:21:15;69.53;;;33.83;;
18947;SDS011;9607;51.600;7.558;2022-12-13T04:23:43;60.97;;;32.77;;
18947;SDS011;9607;51.600;7.558;2022-12-13T04:26:10;53.87;;;30.60;;
18947;SDS011;9607;51.600;7.558;2022-12-13T04:28:37;56.60;;;29.97;;
18947;SDS011;9607;51.600;7.558;2022-12-13T04:31:04;51.57;;;26.73;;
18947;SDS011;9607;51.600;7.558;2022-12-13T04:33:31;51.00;;;28.20;;
18947;SDS011;9607;51.600;7.558;2022-12-13T04:35:58;45.93;;;25.03;;
18947;SDS011;9607;51.600;7.558;2022-12-13T04:38:25;46.53;;;25.50;;
18947;SDS011;9607;51.600;7.558;2022-12-13T04:40:53;47.90;;;26.33;;
18947;SDS011;9607;51.600;7.558;2022-12-13T04:43:30;49.67;;;27.00;;
18947;SDS011;9607;51.600;7.558;2022-12-13T04:45:56;50.00;;;26.77;;
18947;SDS011;9607;51.600;7.558;2022-12-13T04:48:23;55.03;;;29.73;;
18947;SDS011;9607;51.600;7.558;2022-12-13T04:50:50;60.17;;;30.30;;
18947;SDS011;9607;51.600;7.558;2022-12-13T04:53:17;45.40;;;25.60;;
18947;SDS011;9607;51.600;7.558;2022-12-13T04:55:44;44.03;;;24.40;;
18947;SDS011;9607;51.600;7.558;2022-12-13T04:58:12;40.50;;;23.17;;
18947;SDS011;9607;51.600;7.558;2022-12-13T05:00:39;42.07;;;23.00;;
18947;SDS011;9607;51.600;7.558;2022-12-13T05:03:06;37.50;;;22.43;;
18947;SDS011;9607;51.600;7.558;2022-12-13T05:05:33;35.30;;;20.03;;
18947;SDS011;9607;51.600;7.558;2022-12-13T05:08:04;37.80;;;22.07;;
18947;SDS011;9607;51.600;7.558;2022-12-13T05:10:33;34.33;;;20.63;;
18947;SDS011;9607;51.600;7.558;2022-12-13T05:13:00;49.60;;;27.17;;
18947;SDS011;9607;51.600;7.558;2022-12-13T05:15:29;59.60;;;29.97;;
18947;SDS011;9607;51.600;7.558;2022-12-13T05:17:58;63.63;;;30.07;;
18947;SDS011;9607;51.600;7.558;2022-12-13T05:20:25;49.30;;;26.13;;
18947;SDS011;9607;51.600;7.558;2022-12-13T05:22:54;45.93;;;24.37;;
18947;SDS011;9607;51.600;7.558;2022-12-13T05:25:22;43.03;;;23.80;;
18947;SDS011;9607;51.600;7.558;2022-12-13T05:27:52;38.37;;;21.43;;
18947;SDS011;9607;51.600;7.558;2022-12-13T05:30:19;40.73;;;22.03;;
18947;SDS011;9607;51.600;7.558;2022-12-13T05:32:47;52.13;;;30.03;;
18947;SDS011;9607;51.600;7.558;2022-12-13T05:35:15;42.80;;;23.80;;
18947;SDS011;9607;51.600;7.558;2022-12-13T05:37:41;46.70;;;25.07;;
18947;SDS011;9607;51.600;7.558;2022-12-13T05:40:11;41.23;;;23.73;;
18947;SDS011;9607;51.600;7.558;2022-12-13T05:42:38;42.07;;;24.53;;
18947;SDS011;9607;51.600;7.558;2022-12-13T05:45:06;47.63;;;26.90;;
18947;SDS011;9607;51.600;7.558;2022-12-13T05:47:33;51.57;;;28.60;;
18947;SDS011;9607;51.600;7.558;2022-12-13T05:50:01;51.93;;;27.67;;
18947;SDS011;9607;51.600;7.558;2022-12-13T05:52:29;54.17;;;28.20;;
18947;SDS011;9607;51.600;7.558;2022-12-13T05:54:56;51.20;;;27.43;;
18947;SDS011;9607;51.600;7.558;2022-12-13T05:57:23;48.80;;;26.73;;
18947;SDS011;9607;51.600;7.558;2022-12-13T05:59:50;39.43;;;23.53;;
18947;SDS011;9607;51.600;7.558;2022-12-13T06:02:17;43.50;;;23.57;;
18947;SDS011;9607;51.600;7.558;2022-12-13T06:04:44;38.37;;;21.43;;
18947;SDS011;9607;51.600;7.558;2022-12-13T06:07:12;41.80;;;22.77;;
18947;SDS011;9607;51.600;7.558;2022-12-13T06:09:39;38.90;;;20.93;;
18947;SDS011;9607;51.600;7.558;2022-12-13T06:12:09;35.73;;;19.87;;
18947;SDS011;9607;51.600;7.558;2022-12-13T06:14:36;32.20;;;18.63;;
18947;SDS011;9607;51.600;7.558;2022-12-13T06:17:03;31.57;;;17.33;;
18947;SDS011;9607;51.600;7.558;2022-12-13T06:19:30;31.80;;;18.43;;
18947;SDS011;9607;51.600;7.558;2022-12-13T06:21:57;31.77;;;17.30;;
18947;SDS011;9607;51.600;7.558;2022-12-13T06:24:26;26.70;;;16.10;;
18947;SDS011;9607;51.600;7.558;2022-12-13T06:26:52;30.47;;;18.13;;
18947;SDS011;9607;51.600;7.558;2022-12-13T06:29:20;27.27;;;15.83;;
18947;SDS011;9607;51.600;7.558;2022-12-13T06:31:50;26.27;;;15.77;;
18947;SDS011;9607;51.600;7.558;2022-12-13T06:34:21;27.10;;;16.60;;
18947;SDS011;9607;51.600;7.558;2022-12-13T06:36:48;29.23;;;16.50;;
18947;SDS011;9607;51.600;7.558;2022-12-13T06:39:15;26.00;;;15.60;;
18947;SDS011;9607;51.600;7.558;2022-12-13T06:41:46;32.87;;;17.40;;
18947;SDS011;9607;51.600;7.558;2022-12-13T06:44:13;30.60;;;17.90;;
18947;SDS011;9607;51.600;7.558;2022-12-13T06:46:40;29.63;;;16.43;;
18947;SDS011;9607;51.600;7.558;2022-12-13T06:49:07;30.87;;;17.63;;
18947;SDS011;9607;51.600;7.558;2022-12-13T06:51:34;28.23;;;17.03;;
18947;SDS011;9607;51.600;7.558;2022-12-13T06:54:01;31.03;;;17.03;;
18947;SDS011;9607;51.600;7.558;2022-12-13T06:56:29;31.57;;;18.33;;
18947;SDS011;9607;51.600;7.558;2022-12-13T06:58:58;31.83;;;19.03;;
18947;SDS011;9607;51.600;7.558;2022-12-13T07:01:24;39.03;;;21.87;;
18947;SDS011;9607;51.600;7.558;2022-12-13T07:03:53;35.57;;;21.43;;
18947;SDS011;9607;51.600;7.558;2022-12-13T07:06:22;38.90;;;22.47;;
18947;SDS011;9607;51.600;7.558;2022-12-13T07:08:50;40.47;;;21.20;;
18947;SDS011;9607;51.600;7.558;2022-12-13T07:11:20;35.87;;;19.90;;
18947;SDS011;9607;51.600;7.558;2022-12-13T07:13:47;36.10;;;20.73;;
18947;SDS011;9607;51.600;7.558;2022-12-13T07:16:16;35.10;;;20.17;;
18947;SDS011;9607;51.600;7.558;2022-12-13T07:18:43;31.80;;;18.97;;
18947;SDS011;9607;51.600;7.558;2022-12-13T07:21:13;39.60;;;22.00;;
18947;SDS011;9607;51.600;7.558;2022-12-13T07:23:40;32.93;;;19.63;;
18947;SDS011;9607;51.600;7.558;2022-12-13T07:26:07;32.73;;;19.40;;
18947;SDS011;9607;51.600;7.558;2022-12-13T07:28:34;30.83;;;18.43;;
18947;SDS011;9607;51.600;7.558;2022-12-13T07:31:03;29.77;;;17.77;;
18947;SDS011;9607;51.600;7.558;2022-12-13T07:33:32;29.07;;;17.63;;
18947;SDS011;9607;51.600;7.558;2022-12-13T07:36:04;28.23;;;16.37;;
18947;SDS011;9607;51.600;7.558;2022-12-13T07:38:33;35.13;;;18.50;;
18947;SDS011;9607;51.600;7.558;2022-12-13T07:41:00;34.63;;;18.80;;
18947;SDS011;9607;51.600;7.558;2022-12-13T07:43:27;30.83;;;16.50;;
18947;SDS011;9607;51.600;7.558;2022-12-13T07:45:56;29.80;;;18.57;;
18947;SDS011;9607;51.600;7.558;2022-12-13T07:48:24;38.63;;;22.10;;
18947;SDS011;9607;51.600;7.558;2022-12-13T07:50:52;45.63;;;24.80;;
18947;SDS011;9607;51.600;7.558;2022-12-13T07:53:19;42.70;;;23.73;;
18947;SDS011;9607;51.600;7.558;2022-12-13T07:55:46;45.77;;;24.97;;
18947;SDS011;9607;51.600;7.558;2022-12-13T07:58:13;46.10;;;24.97;;
18947;SDS011;9607;51.600;7.558;2022-12-13T08:00:41;43.77;;;25.70;;
18947;SDS011;9607;51.600;7.558;2022-12-13T08:03:10;47.47;;;25.17;;
18947;SDS011;9607;51.600;7.558;2022-12-13T08:05:37;41.20;;;22.20;;
18947;SDS011;9607;51.600;7.558;2022-12-13T08:08:06;39.93;;;23.53;;
18947;SDS011;9607;51.600;7.558;2022-12-13T08:10:35;38.60;;;21.87;;
18947;SDS011;9607;51.600;7.558;2022-12-13T08:13:03;37.17;;;20.93;;
18947;SDS011;9607;51.600;7.558;2022-12-13T08:15:30;33.50;;;19.07;;
18947;SDS011;9607;51.600;7.558;2022-12-13T08:17:57;31.93;;;18.53;;
18947;SDS011;9607;51.600;7.558;2022-12-13T08:20:24;34.20;;;18.67;;
18947;SDS011;9607;51.600;7.558;2022-12-13T08:22:54;32.40;;;18.67;;
18947;SDS011;9607;51.600;7.558;2022-12-13T08:25:23;32.53;;;18.40;;
18947;SDS011;9607;51.600;7.558;2022-12-13T08:27:50;29.10;;;17.63;;
18947;SDS011;9607;51.600;7.558;2022-12-13T08:30:17;29.73;;;17.43;;
18947;SDS011;9607;51.600;7.558;2022-12-13T08:32:44;30.37;;;18.07;;
18947;SDS011;9607;51.600;7.558;2022-12-13T08:35:17;27.53;;;17.07;;
18947;SDS011;9607;51.600;7.558;2022-12-13T08:37:43;31.23;;;18.27;;
18947;SDS011;9607;51.600;7.558;2022-12-13T08:40:13;30.50;;;18.00;;
18947;SDS011;9607;51.600;7.558;2022-12-13T08:42:41;26.63;;;16.87;;
18947;SDS011;9607;51.600;7.558;2022-12-13T08:45:08;29.13;;;17.53;;
18947;SDS011;9607;51.600;7.558;2022-12-13T08:47:36;29.23;;;16.27;;
18947;SDS011;9607;51.600;7.558;2022-12-13T08:50:03;28.50;;;16.90;;
18947;SDS011;9607;51.600;7.558;2022-12-13T08:52:30;26.33;;;17.13;;
18947;SDS011;9607;51.600;7.558;2022-12-13T08:54:58;29.77;;;18.10;;
18947;SDS011;9607;51.600;7.558;2022-12-13T08:57:25;31.07;;;17.73;;
18947;SDS011;9607;51.600;7.558;2022-12-13T08:59:53;30.07;;;16.50;;
18947;SDS011;9607;51.600;7.558;2022-12-13T09:02:20;28.40;;;16.70;;
18947;SDS011;9607;51.600;7.558;2022-12-13T09:04:46;29.53;;;18.23;;
18947;SDS011;9607;51.600;7.558;2022-12-13T09:07:14;30.23;;;16.80;;
18947;SDS011;9607;51.600;7.558;2022-12-13T09:09:40;27.60;;;16.60;;
18947;SDS011;9607;51.600;7.558;2022-12-13T09:12:07;28.40;;;17.17;;
18947;SDS011;9607;51.600;7.558;2022-12-13T09:14:34;24.17;;;16.13;;
18947;SDS011;9607;51.600;7.558;2022-12-13T09:17:02;27.50;;;16.17;;
18947;SDS011;9607;51.600;7.558;2022-12-13T09:19:29;27.67;;;16.47;;
18947;SDS011;9607;51.600;7.558;2022-12-13T09:21:56;28.93;;;16.53;;
18947;SDS011;9607;51.600;7.558;2022-12-13T09:24:23;28.27;;;16.40;;
18947;SDS011;9607;51.600;7.558;2022-12-13T09:26:50;28.50;;;16.93;;
18947;SDS011;9607;51.600;7.558;2022-12-13T09:29:17;26.47;;;16.53;;
18947;SDS011;9607;51.600;7.558;2022-12-13T09:31:45;25.00;;;15.17;;
18947;SDS011;9607;51.600;7.558;2022-12-13T09:34:13;26.60;;;16.47;;
18947;SDS011;9607;51.600;7.558;2022-12-13T09:36:40;24.73;;;14.70;;
18947;SDS011;9607;51.600;7.558;2022-12-13T09:39:07;27.73;;;16.53;;
18947;SDS011;9607;51.600;7.558;2022-12-13T09:41:36;24.87;;;15.43;;
18947;SDS011;9607;51.600;7.558;2022-12-13T09:44:10;28.37;;;15.47;;
18947;SDS011;9607;51.600;7.558;2022-12-13T09:46:42;25.80;;;15.47;;
18947;SDS011;9607;51.600;7.558;2022-12-13T09:49:12;25.90;;;15.63;;
18947;SDS011;9607;51.600;7.558;2022-12-13T09:51:43;27.43;;;16.37;;
18947;SDS011;9607;51.600;7.558;2022-12-13T09:54:15;23.03;;;14.67;;
18947;SDS011;9607;51.600;7.558;2022-12-13T09:56:44;26.93;;;16.60;;
18947;SDS011;9607;51.600;7.558;2022-12-13T09:59:14;23.97;;;14.40;;
18947;SDS011;9607;51.600;7.558;2022-12-13T10:01:42;25.63;;;15.70;;
18947;SDS011;9607;51.600;7.558;2022-12-13T10:04:10;24.83;;;15.50;;
18947;SDS011;9607;51.600;7.558;2022-12-13T10:06:41;24.03;;;14.70;;
18947;SDS011;9607;51.600;7.558;2022-12-13T10:09:09;24.93;;;14.63;;
18947;SDS011;9607;51.600;7.558;2022-12-13T10:11:44;23.97;;;15.10;;
18947;SDS011;9607;51.600;7.558;2022-12-13T10:14:16;25.00;;;15.00;;
18947;SDS011;9607;51.600;7.558;2022-12-13T10:16:50;22.60;;;14.20;;
18947;SDS011;9607;51.600;7.558;2022-12-13T10:19:22;26.27;;;16.93;;
18947;SDS011;9607;51.600;7.558;2022-12-13T10:21:55;26.43;;;16.37;;
18947;SDS011;9607;51.600;7.558;2022-12-13T10:24:24;27.07;;;16.13;;
18947;SDS011;9607;51.600;7.558;2022-12-13T10:26:55;26.00;;;16.43;;
18947;SDS011;9607;51.600;7.558;2022-12-13T10:29:24;26.37;;;16.63;;
18947;SDS011;9607;51.600;7.558;2022-12-13T10:31:51;26.33;;;15.70;;
18947;SDS011;9607;51.600;7.558;2022-12-13T10:34:20;27.40;;;16.30;;
18947;SDS011;9607;51.600;7.558;2022-12-13T10:36:48;29.70;;;17.17;;
18947;SDS011;9607;51.600;7.558;2022-12-13T10:39:18;29.17;;;17.23;;
18947;SDS011;9607;51.600;7.558;2022-12-13T10:42:02;26.43;;;16.33;;
18947;SDS011;9607;51.600;7.558;2022-12-13T10:44:30;23.30;;;14.17;;
18947;SDS011;9607;51.600;7.558;2022-12-13T10:47:00;25.67;;;16.33;;
18947;SDS011;9607;51.600;7.558;2022-12-13T10:49:32;27.67;;;16.17;;
18947;SDS011;9607;51.600;7.558;2022-12-13T10:52:04;22.83;;;14.53;;
18947;SDS011;9607;51.600;7.558;2022-12-13T10:54:35;24.17;;;14.93;;
18947;SDS011;9607;51.600;7.558;2022-12-13T10:57:03;28.70;;;17.07;;
18947;SDS011;9607;51.600;7.558;2022-12-13T10:59:31;24.60;;;14.65;;
18947;SDS011;9607;51.600;7.558;2022-12-13T11:02:00;22.70;;;14.77;;
18947;SDS011;9607;51.600;7.558;2022-12-13T11:04:28;24.67;;;15.37;;
18947;SDS011;9607;51.600;7.558;2022-12-13T11:06:56;25.88;;;15.75;;
18947;SDS011;9607;51.600;7.558;2022-12-13T11:09:26;25.13;;;15.33;;
18947;SDS011;9607;51.600;7.558;2022-12-13T11:11:57;25.95;;;15.35;;
18947;SDS011;9607;51.600;7.558;2022-12-13T11:14:27;25.65;;;15.10;;
18947;SDS011;9607;51.600;7.558;2022-12-13T11:16:58;25.23;;;14.93;;
18947;SDS011;9607;51.600;7.558;2022-12-13T11:19:34;23.70;;;14.48;;
18947;SDS011;9607;51.600;7.558;2022-12-13T11:22:03;25.55;;;14.73;;
18947;SDS011;9607;51.600;7.558;2022-12-13T11:24:33;25.27;;;14.32;;
18947;SDS011;9607;51.600;7.558;2022-12-13T11:27:06;23.98;;;14.40;;
18947;SDS011;9607;51.600;7.558;2022-12-13T11:29:47;22.40;;;14.43;;
18947;SDS011;9607;51.600;7.558;2022-12-13T11:32:32;21.67;;;14.23;;
18947;SDS011;9607;51.600;7.558;2022-12-13T11:35:11;22.75;;;13.88;;
18947;SDS011;9607;51.600;7.558;2022-12-13T11:37:44;24.00;;;14.20;;
18947;SDS011;9607;51.600;7.558;2022-12-13T11:40:18;24.58;;;14.23;;
18947;SDS011;9607;51.600;7.558;2022-12-13T11:42:51;23.67;;;15.18;;
18947;SDS011;9607;51.600;7.558;2022-12-13T11:45:23;24.05;;;14.52;;
18947;SDS011;9607;51.600;7.558;2022-12-13T11:47:56;24.58;;;14.18;;
18947;SDS011;9607;51.600;7.558;2022-12-13T11:50:28;22.83;;;14.10;;
18947;SDS011;9607;51.600;7.558;2022-12-13T11:53:02;28.77;;;15.25;;
18947;SDS011;9607;51.600;7.558;2022-12-13T11:55:43;23.70;;;15.00;;
18947;SDS011;9607;51.600;7.558;2022-12-13T11:58:20;24.40;;;14.23;;
18947;SDS011;9607;51.600;7.558;2022-12-13T12:00:51;22.73;;;14.23;;
18947;SDS011;9607;51.600;7.558;2022-12-13T12:03:26;24.10;;;14.88;;
18947;SDS011;9607;51.600;7.558;2022-12-13T12:06:03;21.48;;;13.13;;
18947;SDS011;9607;51.600;7.558;2022-12-13T12:08:37;21.55;;;13.55;;
18947;SDS011;9607;51.600;7.558;2022-12-13T12:11:11;19.05;;;12.70;;
18947;SDS011;9607;51.600;7.558;2022-12-13T12:13:48;17.05;;;11.73;;
18947;SDS011;9607;51.600;7.558;2022-12-13T12:16:21;16.42;;;11.32;;
18947;SDS011;9607;51.600;7.558;2022-12-13T12:18:55;17.63;;;11.77;;
18947;SDS011;9607;51.600;7.558;2022-12-13T12:21:25;17.35;;;12.13;;
18947;SDS011;9607;51.600;7.558;2022-12-13T12:24:04;15.25;;;11.48;;
18947;SDS011;9607;51.600;7.558;2022-12-13T12:26:39;14.45;;;11.27;;
18947;SDS011;9607;51.600;7.558;2022-12-13T12:32:15;15.48;;;10.75;;
18947;SDS011;9607;51.600;7.558;2022-12-13T12:34:52;16.30;;;12.18;;
18947;SDS011;9607;51.600;7.558;2022-12-13T12:37:28;16.73;;;11.05;;
18947;SDS011;9607;51.600;7.558;2022-12-13T12:40:10;14.45;;;10.35;;
18947;SDS011;9607;51.600;7.558;2022-12-13T12:43:09;14.38;;;10.40;;
18947;SDS011;9607;51.600;7.558;2022-12-13T12:45:45;16.80;;;10.73;;
18947;SDS011;9607;51.600;7.558;2022-12-13T12:48:33;12.07;;;9.30;;
18947;SDS011;9607;51.600;7.558;2022-12-13T12:51:13;11.20;;;8.38;;
18947;SDS011;9607;51.600;7.558;2022-12-13T12:53:45;12.48;;;8.15;;
18947;SDS011;9607;51.600;7.558;2022-12-13T12:56:27;12.80;;;8.45;;
18947;SDS011;9607;51.600;7.558;2022-12-13T12:59:01;12.95;;;9.05;;
18947;SDS011;9607;51.600;7.558;2022-12-13T13:01:43;12.25;;;8.48;;
18947;SDS011;9607;51.600;7.558;2022-12-13T13:04:19;11.88;;;8.25;;
18947;SDS011;9607;51.600;7.558;2022-12-13T13:06:52;12.57;;;8.40;;
18947;SDS011;9607;51.600;7.558;2022-12-13T13:09:24;12.00;;;8.65;;
18947;SDS011;9607;51.600;7.558;2022-12-13T13:11:52;12.60;;;8.38;;
18947;SDS011;9607;51.600;7.558;2022-12-13T13:14:27;10.70;;;7.72;;
18947;SDS011;9607;51.600;7.558;2022-12-13T13:16:58;11.20;;;8.10;;
18947;SDS011;9607;51.600;7.558;2022-12-13T13:19:39;9.93;;;7.32;;
18947;SDS011;9607;51.600;7.558;2022-12-13T13:22:27;13.45;;;8.88;;
18947;SDS011;9607;51.600;7.558;2022-12-13T13:25:13;11.82;;;8.18;;
18947;SDS011;9607;51.600;7.558;2022-12-13T13:27:59;11.63;;;7.88;;
18947;SDS011;9607;51.600;7.558;2022-12-13T13:30:29;12.00;;;8.38;;
18947;SDS011;9607;51.600;7.558;2022-12-13T13:32:57;10.65;;;7.95;;
18947;SDS011;9607;51.600;7.558;2022-12-13T13:47:09;13.32;;;8.68;;
18947;SDS011;9607;51.600;7.558;2022-12-13T13:49:40;15.23;;;9.82;;
18947;SDS011;9607;51.600;7.558;2022-12-13T13:52:16;16.08;;;9.25;;
18947;SDS011;9607;51.600;7.558;2022-12-13T13:54:51;12.98;;;8.85;;
18947;SDS011;9607;51.600;7.558;2022-12-13T13:58:12;13.18;;;9.02;;
18947;SDS011;9607;51.600;7.558;2022-12-13T14:01:10;14.93;;;9.38;;
18947;SDS011;9607;51.600;7.558;2022-12-13T14:04:08;12.50;;;8.75;;
18947;SDS011;9607;51.600;7.558;2022-12-13T14:10:20;13.27;;;8.25;;
18947;SDS011;9607;51.600;7.558;2022-12-13T14:19:43;13.20;;;8.40;;
18947;SDS011;9607;51.600;7.558;2022-12-13T14:22:39;13.43;;;8.82;;
18947;SDS011;9607;51.600;7.558;2022-12-13T14:28:08;13.20;;;9.15;;
18947;SDS011;9607;51.600;7.558;2022-12-13T14:30:41;15.13;;;9.32;;
18947;SDS011;9607;51.600;7.558;2022-12-13T14:33:12;14.10;;;8.57;;
18947;SDS011;9607;51.600;7.558;2022-12-13T14:35:49;12.25;;;8.40;;
18947;SDS011;9607;51.600;7.558;2022-12-13T14:38:20;12.15;;;7.95;;
18947;SDS011;9607;51.600;7.558;2022-12-13T14:40:50;11.80;;;8.25;;
18947;SDS011;9607;51.600;7.558;2022-12-13T14:43:22;11.25;;;8.07;;
18947;SDS011;9607;51.600;7.558;2022-12-13T14:45:56;10.55;;;7.88;;
18947;SDS011;9607;51.600;7.558;2022-12-13T14:48:24;13.68;;;8.98;;
18947;SDS011;9607;51.600;7.558;2022-12-13T14:50:52;12.15;;;8.50;;
18947;SDS011;9607;51.600;7.558;2022-12-13T14:53:24;11.95;;;8.45;;
18947;SDS011;9607;51.600;7.558;2022-12-13T14:56:04;15.73;;;11.40;;
18947;SDS011;9607;51.600;7.558;2022-12-13T14:58:32;17.20;;;11.25;;
18947;SDS011;9607;51.600;7.558;2022-12-13T15:01:01;17.05;;;10.85;;
18947;SDS011;9607;51.600;7.558;2022-12-13T15:03:28;19.73;;;11.68;;
18947;SDS011;9607;51.600;7.558;2022-12-13T15:05:56;19.05;;;12.68;;
18947;SDS011;9607;51.600;7.558;2022-12-13T15:08:25;23.40;;;13.65;;
18947;SDS011;9607;51.600;7.558;2022-12-13T15:10:54;21.38;;;13.30;;
18947;SDS011;9607;51.600;7.558;2022-12-13T15:13:24;22.58;;;14.48;;
18947;SDS011;9607;51.600;7.558;2022-12-13T15:15:54;25.70;;;14.80;;
18947;SDS011;9607;51.600;7.558;2022-12-13T15:18:24;22.15;;;14.40;;
18947;SDS011;9607;51.600;7.558;2022-12-13T15:20:52;22.83;;;14.23;;
18947;SDS011;9607;51.600;7.558;2022-12-13T15:23:21;27.63;;;16.73;;
18947;SDS011;9607;51.600;7.558;2022-12-13T15:25:54;25.50;;;16.30;;
18947;SDS011;9607;51.600;7.558;2022-12-13T15:28:25;24.80;;;15.73;;
18947;SDS011;9607;51.600;7.558;2022-12-13T15:30:55;27.80;;;16.47;;
18947;SDS011;9607;51.600;7.558;2022-12-13T15:33:24;25.20;;;16.70;;